Koyo — JD2279 — position and weather

sailwx.info

Track history (hours):
 
Tides and Currents Weather Stations Pressure Air Temp Water Temp Dewpoint Dewpoint Depression Visibility Wind Speed Wind Dir Waves Ship Positions

Koyo

Last reported at 2015-Jul-05 03:33 UTC. Time now 2015-Jul-05 04:28 UTC.
Position N 34°41' E 135°13'.

Length 80 m; draft 3.6 m.

Type: Cargo ship. MMSI: 431301812.

Date/timePositionNaut miles runAvg speedWind from/ knotsBaromVisibWave heightAir tempDewpointWater temp
2015-Jul-05 03:33N 34°41' E 135°13'0 0.0
2015-Jul-05 02:33N 34°41' E 135°13'0 0.0
2015-Jul-05 01:33N 34°41' E 135°13'0 0.0
2015-Jul-05 00:33N 34°41' E 135°13'0 0.0
2015-Jul-04 23:33N 34°41' E 135°13'0 0.0
2015-Jul-04 22:33N 34°41' E 135°13'0 0.0
2015-Jul-04 21:33N 34°41' E 135°13'0 0.0
2015-Jul-04 20:15N 34°41' E 135°13'0 0.0
2015-Jul-04 19:33N 34°41' E 135°13'0 0.0
2015-Jul-04 18:33N 34°41' E 135°13'0 0.0
2015-Jul-04 17:33N 34°41' E 135°13'0 0.0
2015-Jul-04 16:33N 34°41' E 135°13'0 0.0
2015-Jul-04 15:33N 34°41' E 135°13'0 0.0
2015-Jul-04 14:33N 34°41' E 135°13'0 0.0
2015-Jul-04 13:33N 34°41' E 135°13'0 0.0
2015-Jul-04 12:33N 34°41' E 135°13'0 0.0
2015-Jul-04 11:33N 34°41' E 135°13'8 7.8
2015-Jul-04 10:33N 34°35' E 135°06'1111.4
2015-Jul-04 09:33N 34°34' E 134°53'2 0.1
2015-Jul-03 15:32N 34°36' E 134°54'1212.4
2015-Jul-03 14:33N 34°36' E 135°09'6 5.6
2015-Jul-03 13:33N 34°40' E 135°14'0 0.0
2015-Jul-03 12:33N 34°40' E 135°14'0 0.0
2015-Jul-03 11:33N 34°40' E 135°14'0 0.0
2015-Jul-03 10:33N 34°40' E 135°14'0 0.0
2015-Jul-03 09:33N 34°40' E 135°14'9 9.2
2015-Jul-03 08:33N 34°35' E 135°05'23412.3
2015-Jul-02 13:31N 33°53' E 130°27'1313.1
2015-Jul-02 12:33N 33°43' E 130°17'8 7.7
2015-Jul-02 11:33N 33°39' E 130°25'0 0.0
2015-Jul-02 10:32N 33°39' E 130°25'0 0.0
2015-Jul-02 09:32N 33°39' E 130°25'8 7.7
2015-Jul-02 08:33N 33°42' E 130°16'23111.5
2015-Jul-01 12:24N 34°34' E 134°48'1214.5
2015-Jul-01 11:33N 34°37' E 135°03'1010.1
2015-Jul-01 10:33N 34°40' E 135°14'0 0.0
2015-Jul-01 09:33N 34°40' E 135°14'0 0.0
2015-Jul-01 08:33N 34°40' E 135°14'0 0.0
2015-Jul-01 07:33N 34°40' E 135°14'0 0.2
2015-Jul-01 06:33N 34°39' E 135°15'1 0.9
2015-Jul-01 05:33N 34°39' E 135°15'0 0.0
2015-Jul-01 04:33N 34°39' E 135°15'0 0.0
2015-Jul-01 03:33N 34°39' E 135°15'0 0.0
2015-Jul-01 02:33N 34°39' E 135°15'0 0.1
2015-Jul-01 01:33N 34°39' E 135°15'0 0.0
2015-Jul-01 00:33N 34°39' E 135°15'0 0.0
2015-Jun-30 23:34N 34°39' E 135°15'9 8.9
2015-Jun-30 22:33N 34°35' E 135°05'9 8.3
2015-Jun-30 21:31N 34°35' E 134°54'5 0.1
2015-Jun-29 07:22N 34°34' E 134°49'1113.5
2015-Jun-29 06:33N 34°37' E 135°02'1111.2
2015-Jun-29 05:33N 34°39' E 135°15'0 0.3
2015-Jun-29 04:16N 34°39' E 135°15'0 0.0
2015-Jun-29 03:28N 34°39' E 135°15'0 0.0
2015-Jun-29 02:28N 34°39' E 135°15'0 0.0
2015-Jun-29 01:28N 34°39' E 135°15'1 0.9
2015-Jun-29 00:11N 34°38' E 135°15'0 0.0
2015-Jun-28 23:29N 34°38' E 135°15'0 0.0
2015-Jun-28 22:29N 34°38' E 135°15'0 0.0
2015-Jun-28 21:33N 34°38' E 135°15'1010.0
2015-Jun-28 20:33N 34°29' E 135°10'1311.8
2015-Jun-28 19:29N 34°19' E 135°01'  
2015-Jun-26 05:26N 34°03' E 134°43'1011.3
2015-Jun-26 04:33N 34°10' E 134°52'1312.7
2015-Jun-26 03:31N 34°21' E 134°60'1313.5
2015-Jun-26 02:33N 34°31' E 135°09'9 9.3
2015-Jun-26 01:33N 34°40' E 135°14'0 0.0
2015-Jun-26 00:33N 34°40' E 135°14'0 0.0
2015-Jun-25 23:33N 34°40' E 135°14'3 3.3
2015-Jun-25 22:33N 34°37' E 135°12'10 9.8
2015-Jun-25 21:30N 34°37' E 134°60'1010.2
2015-Jun-25 20:29N 34°33' E 134°48'  
Track history (hours):
 
Tides and Currents Weather Stations Pressure Air Temp Water Temp Dewpoint Dewpoint Depression Visibility Wind Speed Wind Dir Waves Ship Positions

Koyo

Last reported at 2015-Jul-05 03:33 UTC. Time now 2015-Jul-05 04:28 UTC.
Position N 34°41' E 135°13'.

Length 80 m; draft 3.6 m.

Type: Cargo ship. MMSI: 431301812.

Date/timePositionNaut miles runAvg speedWind from/ knotsBaromVisibWave heightAir tempDewpointWater temp
2015-Jul-05 03:33N 34°41' E 135°13'0 0.0
2015-Jul-05 02:33N 34°41' E 135°13'0 0.0
2015-Jul-05 01:33N 34°41' E 135°13'0 0.0
2015-Jul-05 00:33N 34°41' E 135°13'0 0.0
2015-Jul-04 23:33N 34°41' E 135°13'0 0.0
2015-Jul-04 22:33N 34°41' E 135°13'0 0.0
2015-Jul-04 21:33N 34°41' E 135°13'0 0.0
2015-Jul-04 20:15N 34°41' E 135°13'0 0.0
2015-Jul-04 19:33N 34°41' E 135°13'0 0.0
2015-Jul-04 18:33N 34°41' E 135°13'0 0.0
2015-Jul-04 17:33N 34°41' E 135°13'0 0.0
2015-Jul-04 16:33N 34°41' E 135°13'0 0.0
2015-Jul-04 15:33N 34°41' E 135°13'0 0.0
2015-Jul-04 14:33N 34°41' E 135°13'0 0.0
2015-Jul-04 13:33N 34°41' E 135°13'0 0.0
2015-Jul-04 12:33N 34°41' E 135°13'0 0.0
2015-Jul-04 11:33N 34°41' E 135°13'8 7.8
2015-Jul-04 10:33N 34°35' E 135°06'1111.4
2015-Jul-04 09:33N 34°34' E 134°53'2 0.1
2015-Jul-03 15:32N 34°36' E 134°54'1212.4
2015-Jul-03 14:33N 34°36' E 135°09'6 5.6
2015-Jul-03 13:33N 34°40' E 135°14'0 0.0
2015-Jul-03 12:33N 34°40' E 135°14'0 0.0
2015-Jul-03 11:33N 34°40' E 135°14'0 0.0
2015-Jul-03 10:33N 34°40' E 135°14'0 0.0
2015-Jul-03 09:33N 34°40' E 135°14'9 9.2
2015-Jul-03 08:33N 34°35' E 135°05'23412.3
2015-Jul-02 13:31N 33°53' E 130°27'1313.1
2015-Jul-02 12:33N 33°43' E 130°17'8 7.7
2015-Jul-02 11:33N 33°39' E 130°25'0 0.0
2015-Jul-02 10:32N 33°39' E 130°25'0 0.0
2015-Jul-02 09:32N 33°39' E 130°25'8 7.7
2015-Jul-02 08:33N 33°42' E 130°16'23111.5
2015-Jul-01 12:24N 34°34' E 134°48'1214.5
2015-Jul-01 11:33N 34°37' E 135°03'1010.1
2015-Jul-01 10:33N 34°40' E 135°14'0 0.0
2015-Jul-01 09:33N 34°40' E 135°14'0 0.0
2015-Jul-01 08:33N 34°40' E 135°14'0 0.0
2015-Jul-01 07:33N 34°40' E 135°14'0 0.2
2015-Jul-01 06:33N 34°39' E 135°15'1 0.9
2015-Jul-01 05:33N 34°39' E 135°15'0 0.0
2015-Jul-01 04:33N 34°39' E 135°15'0 0.0
2015-Jul-01 03:33N 34°39' E 135°15'0 0.0
2015-Jul-01 02:33N 34°39' E 135°15'0 0.1
2015-Jul-01 01:33N 34°39' E 135°15'0 0.0
2015-Jul-01 00:33N 34°39' E 135°15'0 0.0
2015-Jun-30 23:34N 34°39' E 135°15'9 8.9
2015-Jun-30 22:33N 34°35' E 135°05'9 8.3
2015-Jun-30 21:31N 34°35' E 134°54'5 0.1
2015-Jun-29 07:22N 34°34' E 134°49'1113.5
2015-Jun-29 06:33N 34°37' E 135°02'1111.2
2015-Jun-29 05:33N 34°39' E 135°15'0 0.3
2015-Jun-29 04:16N 34°39' E 135°15'0 0.0
2015-Jun-29 03:28N 34°39' E 135°15'0 0.0
2015-Jun-29 02:28N 34°39' E 135°15'0 0.0
2015-Jun-29 01:28N 34°39' E 135°15'1 0.9
2015-Jun-29 00:11N 34°38' E 135°15'0 0.0
2015-Jun-28 23:29N 34°38' E 135°15'0 0.0
2015-Jun-28 22:29N 34°38' E 135°15'0 0.0
2015-Jun-28 21:33N 34°38' E 135°15'1010.0
2015-Jun-28 20:33N 34°29' E 135°10'1311.8
2015-Jun-28 19:29N 34°19' E 135°01'  
2015-Jun-26 05:26N 34°03' E 134°43'1011.3
2015-Jun-26 04:33N 34°10' E 134°52'1312.7
2015-Jun-26 03:31N 34°21' E 134°60'1313.5
2015-Jun-26 02:33N 34°31' E 135°09'9 9.3
2015-Jun-26 01:33N 34°40' E 135°14'0 0.0
2015-Jun-26 00:33N 34°40' E 135°14'0 0.0
2015-Jun-25 23:33N 34°40' E 135°14'3 3.3
2015-Jun-25 22:33N 34°37' E 135°12'10 9.8
2015-Jun-25 21:30N 34°37' E 134°60'1010.2
2015-Jun-25 20:29N 34°33' E 134°48'  

Dump ship's entire track history